aviador You're here:

LFPN Decoded Metar

TOUSSOUS-LE-NOBLE in FRANCE
Report Time2017-08-22 16:00:00
UTC Time2017-08-22 16:29:18
Flight Rules vfr VFR
Wind120° at 08 kt
W.Decomp.*RWY 07: 5.0 kt HW 6.2 kt RCW
W.Rank120° ranks 24
Current wind is above 120° avg. (5.4)
Visibility9999 m
Phenomena:N/A
Clouds:N/A
Expected CloudBase > 4,000 ft AGL from Temp-Dew spread
CeilingNone
Temp27°C (ISA +13)
Dew Point17°C (54% RH)
Heat Index27.7°C
AAT26.5°C
QNH1016 hPa
Density Alt2,201 ft
Elevation538 ft
Report Wrong Elevation
Raw Report
LFPN 221600Z AUTO 12008KT 070V160 CAVOK 27/17 Q1016 NOSIG=

Extra information for LFPN:More info

Metar Taf Metar & Taf Last 4 Metars F.Rules Stats Wind Profile Meteogram Temp Stats Airport Information Weather charts Add Link Nearby VenuesMetar ALERT Operation Metar Decoded Social comments